Time;durP1;ratioP1;P1;durP2;ratioP2;P2;SDS_P1;SDS_P2;PMS_P1;PMS_P2;Temp;Humidity;BMP_temperature;BMP_pressure;BME280_temperature;BME280_humidity;BME280_pressure;Samples;Min_cycle;Max_cycle;Signal;HPM_P1;HPM_P2
2023/03/31 00:01:51;;;;;;;;;;;;;;;7.75;62.84;95250.47;5053104;28;958;-53
2023/03/31 00:04:17;;;;;;;;;;;;;;;7.87;62.25;95251.16;5053026;28;1049;-53
2023/03/31 00:06:44;;;;;;;;;;;;;;;7.94;63.45;95252.28;5053162;28;1103;-53
2023/03/31 00:09:12;;;;;;;;;;;;;;;7.82;63.72;95253.44;5052921;28;1039;-53
2023/03/31 00:11:38;;;;;;;;;;;;;;;7.84;63.70;95255.97;5052771;28;1077;-53
2023/03/31 00:14:06;;;;;;;;;;;;;;;7.95;63.04;95246.00;5053974;28;1999;-53
2023/03/31 00:16:35;;;;;;;;;;;;;;;8.13;61.95;95254.06;5055373;28;937;-53
2023/03/31 00:19:02;;;;;;;;;;;;;;;8.30;62.22;95249.00;5056933;28;946;-53
2023/03/31 00:21:33;;;;;;;;;;;;;;;8.30;63.89;95249.00;5056597;28;965;-53
2023/03/31 00:24:01;;;;;;;;;;;;;;;8.34;63.18;95245.03;5056528;28;1150;-52
2023/03/31 00:26:28;;;;;;;;;;;;;;;8.47;62.14;95242.09;5056667;28;976;-53
2023/03/31 00:28:54;;;;;;;;;;;;;;;8.47;62.92;95244.75;5056681;28;1043;-53
2023/03/31 00:31:21;;;;;;;;;;;;;;;8.46;63.89;95248.41;5056583;28;977;-53
2023/03/31 00:33:47;;;;;;;;;;;;;;;8.54;64.40;95237.88;5056643;28;1918;-53
2023/03/31 00:36:19;;;;;;;;;;;;;;;8.56;64.47;95239.41;5056258;28;930;-53
2023/03/31 00:38:46;;;;;;;;;;;;;;;8.53;64.13;95230.84;5056199;28;1977;-53
2023/03/31 00:41:13;;;;;;;;;;;;;;;8.59;63.91;95236.44;5056441;28;1021;-53
2023/03/31 00:43:41;;;;;;;;;;;;;;;8.53;64.24;95231.69;5056052;28;1054;-54
2023/03/31 00:46:17;;;;;;;;;;;;;;;8.45;64.83;95220.09;5056208;28;960;-54
2023/03/31 00:48:51;;;;;;;;;;;;;;;8.34;63.29;95219.22;5056125;28;1088;-54
2023/03/31 00:51:18;;;;;;;;;;;;;;;8.24;63.11;95217.59;5056280;28;1035;-54
2023/03/31 00:53:47;;;;;;;;;;;;;;;8.48;63.41;95217.97;5055979;28;1910;-54
2023/03/31 00:56:15;;;;;;;;;;;;;;;8.59;63.02;95215.13;5056240;28;961;-54
2023/03/31 00:58:43;;;;;;;;;;;;;;;8.66;62.82;95217.19;5054789;28;1256;-54
2023/03/31 01:01:13;;;;;;;;;;;;;;;8.65;61.36;95203.03;5056191;28;969;-54
2023/03/31 01:03:41;;;;;;;;;;;;;;;8.69;61.38;95207.06;5055956;28;1974;-54
2023/03/31 01:06:09;;;;;;;;;;;;;;;8.83;63.12;95207.56;5056079;28;1071;-54
2023/03/31 01:08:35;;;;;;;;;;;;;;;8.87;62.55;95209.78;5055741;28;1000;-54
2023/03/31 01:11:06;;;;;;;;;;;;;;;8.90;63.31;95203.31;5055723;28;1174;-54
2023/03/31 01:13:35;;;;;;;;;;;;;;;8.87;65.39;95211.59;5055883;28;1988;-54
2023/03/31 01:16:01;;;;;;;;;;;;;;;8.71;67.75;95214.94;5055558;28;1032;-54
2023/03/31 01:18:28;;;;;;;;;;;;;;;8.78;69.04;95218.66;5055759;28;1040;-54
2023/03/31 01:21:05;;;;;;;;;;;;;;;8.81;69.40;95217.53;5055530;28;1108;-54
2023/03/31 01:23:37;;;;;;;;;;;;;;;8.77;69.52;95225.81;5054165;28;1166;-55
2023/03/31 01:26:21;;;;;;;;;;;;;;;8.66;69.33;95227.84;5054578;28;1001;-54
2023/03/31 01:29:00;;;;;;;;;;;;;;;8.45;68.84;95226.25;5055682;28;984;-54
2023/03/31 01:31:44;;;;;;;;;;;;;;;8.44;70.66;95227.22;5055195;28;1125;-54
2023/03/31 01:34:16;;;;;;;;;;;;;;;8.49;70.92;95242.78;5055201;28;1993;-54
2023/03/31 01:37:02;;;;;;;;;;;;;;;8.58;73.84;95247.25;5055538;28;1017;-54
2023/03/31 01:39:46;;;;;;;;;;;;;;;8.51;74.70;95246.97;5055156;28;1339;-54
2023/03/31 01:42:18;;;;;;;;;;;;;;;8.58;76.42;95263.22;5055209;28;977;-55
2023/03/31 01:44:44;;;;;;;;;;;;;;;8.62;77.12;95264.63;5055113;28;1061;-55
2023/03/31 01:47:21;;;;;;;;;;;;;;;8.64;76.15;95275.97;5054884;28;985;-54
2023/03/31 01:49:55;;;;;;;;;;;;;;;8.58;77.24;95279.22;5055376;28;988;-55
2023/03/31 01:52:25;;;;;;;;;;;;;;;8.57;78.25;95282.88;5055230;28;1016;-55
2023/03/31 01:54:58;;;;;;;;;;;;;;;8.53;77.52;95273.47;5055019;28;1993;-55
2023/03/31 01:57:31;;;;;;;;;;;;;;;8.50;78.10;95285.28;5053949;28;952;-55
2023/03/31 02:00:12;;;;;;;;;;;;;;;8.46;77.95;95285.69;5054769;28;977;-54
2023/03/31 02:02:50;;;;;;;;;;;;;;;8.33;77.11;95264.69;5055142;28;969;-55
2023/03/31 02:05:18;;;;;;;;;;;;;;;7.93;82.49;95250.63;5054821;28;1055;-54
2023/03/31 02:07:51;;;;;;;;;;;;;;;7.86;83.88;95246.84;5054774;28;1020;-54
2023/03/31 02:10:19;;;;;;;;;;;;;;;8.11;82.60;95252.53;5054761;28;1008;-55
2023/03/31 02:12:46;;;;;;;;;;;;;;;8.30;82.63;95262.31;5054719;28;1987;-55
2023/03/31 02:15:20;;;;;;;;;;;;;;;8.54;80.80;95269.84;5054591;28;1017;-54
2023/03/31 02:17:49;;;;;;;;;;;;;;;8.47;81.87;95272.25;5054533;28;1139;-55
2023/03/31 02:20:18;;;;;;;;;;;;;;;8.44;80.42;95266.34;5054385;28;1121;-55
2023/03/31 02:22:49;;;;;;;;;;;;;;;8.46;81.71;95261.72;5054347;28;1034;-55
2023/03/31 02:25:18;;;;;;;;;;;;;;;8.42;81.83;95257.66;5054158;28;1266;-54
2023/03/31 02:27:48;;;;;;;;;;;;;;;8.16;84.06;95259.13;5054312;28;1034;-54
2023/03/31 02:30:14;;;;;;;;;;;;;;;8.23;84.09;95259.38;5054199;28;1021;-55
2023/03/31 02:32:41;;;;;;;;;;;;;;;8.36;82.87;95251.91;5054269;28;1975;-54
2023/03/31 02:35:10;;;;;;;;;;;;;;;8.45;82.70;95252.91;5054259;28;1024;-54
2023/03/31 02:37:37;;;;;;;;;;;;;;;8.51;83.85;95254.13;5054023;28;1028;-54
2023/03/31 02:40:09;;;;;;;;;;;;;;;8.39;84.73;95258.78;5054007;28;1323;-54
2023/03/31 02:42:36;;;;;;;;;;;;;;;8.47;84.08;95266.91;5054199;28;945;-54
2023/03/31 02:45:03;;;;;;;;;;;;;;;8.64;84.06;95256.47;5053834;28;1077;-54
2023/03/31 02:47:29;;;;;;;;;;;;;;;8.67;84.58;95251.69;5052667;28;1843;-54
2023/03/31 02:49:57;;;;;;;;;;;;;;;8.68;84.44;95253.38;5054185;28;956;-53
2023/03/31 02:52:26;;;;;;;;;;;;;;;8.58;83.94;95245.41;5053981;28;1044;-55
2023/03/31 02:54:55;;;;;;;;;;;;;;;8.51;85.59;95246.16;5053719;28;1910;-55
2023/03/31 02:57:21;;;;;;;;;;;;;;;8.45;85.75;95250.22;5053777;28;993;-54
2023/03/31 02:59:50;;;;;;;;;;;;;;;8.62;86.23;95256.63;5053787;28;1027;-54
2023/03/31 03:02:25;;;;;;;;;;;;;;;8.57;85.40;95251.75;5053868;28;1032;-54
2023/03/31 03:05:03;;;;;;;;;;;;;;;8.58;85.23;95256.06;5053570;28;1043;-54
2023/03/31 03:07:48;;;;;;;;;;;;;;;8.67;85.37;95243.69;5052489;28;985;-54
2023/03/31 03:10:32;;;;;;;;;;;;;;;8.41;85.74;95248.81;5053717;28;958;-54
2023/03/31 03:13:08;;;;;;;;;;;;;;;8.32;87.03;95241.69;5053514;28;1910;-54
2023/03/31 03:15:36;;;;;;;;;;;;;;;8.23;86.73;95243.38;5053318;28;1021;-54
2023/03/31 03:18:04;;;;;;;;;;;;;;;8.21;87.63;95248.03;5053426;28;1081;-54
2023/03/31 03:20:32;;;;;;;;;;;;;;;8.15;87.74;95246.78;5053220;28;1017;-54
2023/03/31 03:22:59;;;;;;;;;;;;;;;8.27;87.42;95243.94;5053266;28;1109;-54
2023/03/31 03:25:25;;;;;;;;;;;;;;;8.23;87.77;95232.72;5033242;28;1012;-54
2023/03/31 03:27:54;;;;;;;;;;;;;;;8.17;88.23;95233.31;5033239;28;1021;-54
2023/03/31 03:30:20;;;;;;;;;;;;;;;8.14;88.25;95225.63;5033323;28;981;-54
2023/03/31 03:32:46;;;;;;;;;;;;;;;7.96;88.92;95226.34;5033155;28;1902;-54
2023/03/31 03:35:12;;;;;;;;;;;;;;;7.91;89.57;95225.97;5033467;28;978;-54
2023/03/31 03:37:38;;;;;;;;;;;;;;;8.00;88.62;95214.44;5033394;28;969;-54
2023/03/31 03:40:05;;;;;;;;;;;;;;;8.02;88.24;95220.47;5033059;28;1659;-54
2023/03/31 03:42:31;;;;;;;;;;;;;;;8.04;88.27;95227.47;5064872;28;1009;-54
2023/03/31 03:44:57;;;;;;;;;;;;;;;8.09;88.05;95225.22;5064858;28;1033;-54
2023/03/31 03:47:23;;;;;;;;;;;;;;;8.04;88.07;95228.28;5032914;28;1061;-53
2023/03/31 03:49:49;;;;;;;;;;;;;;;7.71;88.48;95226.97;5032648;28;977;-54
2023/03/31 03:52:15;;;;;;;;;;;;;;;7.49;89.55;95236.06;5032750;28;1042;-54
2023/03/31 03:54:41;;;;;;;;;;;;;;;7.52;89.64;95235.78;5032923;28;2022;-54
2023/03/31 03:57:07;;;;;;;;;;;;;;;7.69;88.64;95244.91;5032939;28;1032;-54
2023/03/31 03:59:33;;;;;;;;;;;;;;;7.73;88.67;95255.09;5033045;28;1005;-54
2023/03/31 04:01:59;;;;;;;;;;;;;;;7.83;87.36;95252.44;5033167;28;957;-54
2023/03/31 04:04:25;;;;;;;;;;;;;;;7.79;86.52;95246.56;5033010;28;1048;-54
2023/03/31 04:06:51;;;;;;;;;;;;;;;7.84;85.64;95248.81;5033208;28;1064;-54
2023/03/31 04:09:17;;;;;;;;;;;;;;;7.70;85.58;95250.09;5032792;28;1042;-54
2023/03/31 04:11:43;;;;;;;;;;;;;;;7.28;86.55;95249.50;5032784;28;977;-54
2023/03/31 04:14:09;;;;;;;;;;;;;;;7.01;87.42;95246.50;5032936;28;1927;-54
2023/03/31 04:16:37;;;;;;;;;;;;;;;6.80;87.62;95243.13;5033047;28;949;-54
2023/03/31 04:19:03;;;;;;;;;;;;;;;7.04;86.43;95232.97;5032823;28;1046;-55
2023/03/31 04:21:33;;;;;;;;;;;;;;;7.19;85.10;95238.72;5064859;28;1029;-54
2023/03/31 04:24:05;;;;;;;;;;;;;;;7.34;84.00;95247.13;5040985;28;1183;-54
2023/03/31 04:26:42;;;;;;;;;;;;;;;7.19;83.94;95243.19;5052599;28;1069;-54
2023/03/31 04:29:09;;;;;;;;;;;;;;;7.00;85.38;95244.84;5052725;28;1020;-55
2023/03/31 04:31:37;;;;;;;;;;;;;;;7.06;84.67;95254.09;5052921;28;964;-55
2023/03/31 04:34:05;;;;;;;;;;;;;;;6.83;84.22;95249.00;5052568;28;1996;-55
2023/03/31 04:36:32;;;;;;;;;;;;;;;6.70;84.87;95256.38;5052504;28;1064;-55
2023/03/31 04:38:58;;;;;;;;;;;;;;;6.42;86.10;95253.47;5052361;28;1856;-55
2023/03/31 04:41:26;;;;;;;;;;;;;;;6.57;86.49;95247.81;5051501;28;1006;-54
2023/03/31 04:43:52;;;;;;;;;;;;;;;6.70;86.20;95266.19;5051524;28;1040;-55
2023/03/31 04:46:19;;;;;;;;;;;;;;;6.87;84.93;95248.72;5052652;28;1052;-55
2023/03/31 04:48:45;;;;;;;;;;;;;;;7.09;85.59;95258.28;5052416;28;1049;-55
2023/03/31 04:51:14;;;;;;;;;;;;;;;7.19;84.07;95252.00;5052232;28;1249;-55
2023/03/31 04:53:40;;;;;;;;;;;;;;;7.20;84.89;95259.00;5052247;28;1910;-55
2023/03/31 04:56:06;;;;;;;;;;;;;;;7.08;84.34;95246.81;5052703;28;1052;-55
2023/03/31 04:58:32;;;;;;;;;;;;;;;7.05;84.75;95252.41;5052435;28;953;-55
2023/03/31 05:00:58;;;;;;;;;;;;;;;7.23;85.33;95256.06;5055081;28;1024;-55
2023/03/31 05:03:25;;;;;;;;;;;;;;;7.45;84.65;95255.94;5054676;28;1025;-55
2023/03/31 05:05:51;;;;;;;;;;;;;;;7.84;83.21;95248.81;5055724;28;1052;-55
2023/03/31 05:08:17;;;;;;;;;;;;;;;8.27;82.22;95243.94;5055751;28;1097;-55
2023/03/31 05:10:43;;;;;;;;;;;;;;;8.35;81.78;95242.25;5055742;28;1016;-55
2023/03/31 05:13:09;;;;;;;;;;;;;;;8.41;80.22;95235.50;5054356;28;1914;-55
2023/03/31 05:15:39;;;;;;;;;;;;;;;8.71;80.32;95226.41;5055688;28;1089;-54
2023/03/31 05:18:06;;;;;;;;;;;;;;;8.94;77.26;95218.03;5055622;28;1038;-55
2023/03/31 05:20:32;;;;;;;;;;;;;;;9.25;77.12;95217.69;5055488;28;1029;-55
2023/03/31 05:22:58;;;;;;;;;;;;;;;9.12;76.89;95210.03;5055792;28;1060;-54
2023/03/31 05:25:24;;;;;;;;;;;;;;;9.22;78.65;95202.84;5035720;28;985;-53
2023/03/31 05:27:50;;;;;;;;;;;;;;;9.38;78.13;95213.63;5035641;28;914;-55
2023/03/31 05:30:17;;;;;;;;;;;;;;;9.53;77.66;95216.63;5035402;28;1876;-55
2023/03/31 05:32:43;;;;;;;;;;;;;;;9.71;77.57;95221.09;5035473;28;1909;-55
2023/03/31 05:35:09;;;;;;;;;;;;;;;10.02;75.38;95228.72;5035269;28;1101;-55
2023/03/31 05:37:35;;;;;;;;;;;;;;;10.16;74.64;95236.97;5035636;28;951;-55
2023/03/31 05:40:03;;;;;;;;;;;;;;;10.35;75.08;95225.28;5035267;28;1228;-55
2023/03/31 05:42:29;;;;;;;;;;;;;;;10.48;73.81;95226.69;5035086;28;1050;-55
2023/03/31 05:44:56;;;;;;;;;;;;;;;10.40;73.00;95216.78;5035243;28;1987;-55
2023/03/31 05:47:22;;;;;;;;;;;;;;;10.54;71.83;95218.84;5035079;28;1054;-55
2023/03/31 05:49:48;;;;;;;;;;;;;;;10.39;71.57;95211.59;5033929;28;1038;-55
2023/03/31 05:52:14;;;;;;;;;;;;;;;10.42;72.38;95217.47;5035241;28;974;-55
2023/03/31 05:54:41;;;;;;;;;;;;;;;10.30;71.46;95214.22;5035254;28;1902;-55
2023/03/31 05:57:08;;;;;;;;;;;;;;;10.01;71.75;95219.00;5035003;28;1190;-55
2023/03/31 05:59:35;;;;;;;;;;;;;;;9.94;72.58;95216.09;5034948;28;1013;-55
2023/03/31 06:02:01;;;;;;;;;;;;;;;9.88;73.18;95214.91;5034969;28;1044;-55
2023/03/31 06:04:28;;;;;;;;;;;;;;;9.69;72.46;95215.06;5034660;28;1038;-55
2023/03/31 06:06:54;;;;;;;;;;;;;;;9.52;72.97;95227.44;5035069;28;1037;-55
2023/03/31 06:09:20;;;;;;;;;;;;;;;9.46;73.28;95222.72;5034937;28;954;-55
2023/03/31 06:11:47;;;;;;;;;;;;;;;9.37;73.98;95224.47;5034034;28;1046;-55
2023/03/31 06:14:13;;;;;;;;;;;;;;;9.33;72.99;95220.44;5034526;28;1906;-54
2023/03/31 06:16:39;;;;;;;;;;;;;;;9.37;73.58;95225.31;5034675;28;1049;-55
2023/03/31 06:19:05;;;;;;;;;;;;;;;9.38;71.14;95218.16;5034558;28;985;-55
2023/03/31 06:21:31;;;;;;;;;;;;;;;9.52;71.11;95224.78;5034383;28;1042;-55
2023/03/31 06:23:59;;;;;;;;;;;;;;;9.54;71.15;95218.31;5042668;28;1159;-55
2023/03/31 06:26:25;;;;;;;;;;;;;;;9.66;70.89;95220.75;5054666;28;1036;-55
2023/03/31 06:28:51;;;;;;;;;;;;;;;9.82;69.19;95218.19;5054188;28;1124;-55
2023/03/31 06:31:19;;;;;;;;;;;;;;;10.13;68.92;95218.59;5054242;28;1001;-55
2023/03/31 06:33:45;;;;;;;;;;;;;;;11.00;68.83;95215.03;5054572;28;1988;-55
2023/03/31 06:36:12;;;;;;;;;;;;;;;11.20;67.83;95208.41;5054288;28;996;-55
2023/03/31 06:38:38;;;;;;;;;;;;;;;11.44;66.39;95209.47;5052931;28;1038;-55
2023/03/31 06:42:10;;;;;;;;;;;;;;;11.10;65.26;95205.91;5055496;28;1189;-55
2023/03/31 06:44:37;;;;;;;;;;;;;;;11.03;67.88;95204.03;5071682;28;1034;-55
2023/03/31 06:47:03;;;;;;;;;;;;;;;11.74;64.07;95205.31;5071624;28;1104;-55
2023/03/31 06:49:29;;;;;;;;;;;;;;;12.27;63.51;95197.78;5071518;28;1053;-55
2023/03/31 06:51:55;;;;;;;;;;;;;;;12.16;64.15;95193.63;5071559;28;1045;-55
2023/03/31 06:54:21;;;;;;;;;;;;;;;12.29;64.63;95198.44;5071303;28;2051;-52
2023/03/31 06:56:47;;;;;;;;;;;;;;;13.38;61.20;95196.88;5071374;28;1226;-55
2023/03/31 06:59:13;;;;;;;;;;;;;;;14.33;57.00;95192.09;5071432;28;989;-56
2023/03/31 07:01:41;;;;;;;;;;;;;;;14.73;54.53;95190.03;5071594;28;1391;-56
2023/03/31 07:04:07;;;;;;;;;;;;;;;14.71;57.70;95182.13;5071556;28;962;-55
2023/03/31 07:06:33;;;;;;;;;;;;;;;14.78;54.85;95182.22;5071326;28;1220;-56
2023/03/31 07:08:59;;;;;;;;;;;;;;;14.90;56.21;95172.66;5071362;28;1156;-57
2023/03/31 07:11:25;;;;;;;;;;;;;;;15.19;55.46;95179.00;5069366;28;986;-56
2023/03/31 07:13:51;;;;;;;;;;;;;;;15.51;54.73;95182.28;5053828;28;1910;-56
2023/03/31 07:16:17;;;;;;;;;;;;;;;14.94;54.86;95179.31;5052237;28;1080;-56
2023/03/31 07:18:44;;;;;;;;;;;;;;;14.73;56.39;95168.50;5053625;28;957;-56
2023/03/31 07:21:10;;;;;;;;;;;;;;;15.34;54.83;95182.50;5053324;28;1057;-56
2023/03/31 07:23:36;;;;;;;;;;;;;;;15.45;54.84;95164.19;5052468;28;1158;-56
2023/03/31 07:26:02;;;;;;;;;;;;;;;15.05;55.50;95166.41;5053312;28;1083;-56
2023/03/31 07:28:28;;;;;;;;;;;;;;;15.58;56.00;95164.31;5053131;28;1053;-56
2023/03/31 07:30:54;;;;;;;;;;;;;;;16.27;54.87;95165.56;5053570;28;994;-56
2023/03/31 07:33:21;;;;;;;;;;;;;;;16.70;52.71;95158.19;5053262;28;1981;-57
2023/03/31 07:35:47;;;;;;;;;;;;;;;17.03;50.47;95160.22;5053327;28;1140;-57
2023/03/31 07:38:13;;;;;;;;;;;;;;;16.24;53.83;95150.63;5053175;28;1104;-56
2023/03/31 07:40:39;;;;;;;;;;;;;;;14.95;55.63;95137.94;5053165;28;1061;-56
2023/03/31 07:43:05;;;;;;;;;;;;;;;14.16;58.51;95124.19;5052988;28;1150;-57
2023/03/31 07:45:32;;;;;;;;;;;;;;;14.24;59.92;95127.63;5053310;28;1048;-56
2023/03/31 07:47:58;;;;;;;;;;;;;;;14.20;60.89;95129.00;5052181;28;1005;-57
2023/03/31 07:50:24;;;;;;;;;;;;;;;14.15;60.04;95122.50;5053263;28;974;-57
2023/03/31 07:52:50;;;;;;;;;;;;;;;14.32;59.66;95124.00;5053157;28;1909;-56
2023/03/31 07:55:18;;;;;;;;;;;;;;;14.39;60.29;95124.94;5053193;28;1021;-57
2023/03/31 07:57:45;;;;;;;;;;;;;;;15.23;58.53;95126.41;5053220;28;1052;-57
2023/03/31 08:00:12;;;;;;;;;;;;;;;16.05;56.79;95127.88;5053119;28;961;-56
2023/03/31 08:02:41;;;;;;;;;;;;;;;16.66;54.40;95127.22;5053279;28;1036;-57
2023/03/31 08:05:08;;;;;;;;;;;;;;;17.57;53.22;95128.84;5052994;28;1042;-57
2023/03/31 08:07:35;;;;;;;;;;;;;;;18.12;53.25;95121.41;5052906;28;1037;-55
2023/03/31 09:12:58;;;;;;;;;;;;;;;20.17;37.49;95041.25;5880774;23;3058;-56
2023/03/31 09:28:21;;;;;;;;;;;;;;;21.01;37.85;95022.53;4994835;23;2762;-55
2023/03/31 09:30:48;;;;;;;;;;;;;;;21.42;36.46;95031.00;4942204;29;1074;-55
2023/03/31 09:33:17;;;;;;;;;;;;;;;21.63;34.54;95037.81;4957477;29;1914;-56
2023/03/31 09:39:14;;;;;;;;;;;;;;;21.95;32.74;95030.19;4904301;29;1243;-52
2023/03/31 09:41:43;;;;;;;;;;;;;;;22.23;32.72;95025.91;4917412;29;1319;-53
2023/03/31 09:44:19;;;;;;;;;;;;;;;21.75;32.58;95016.06;4915919;29;1454;-53
2023/03/31 09:46:46;;;;;;;;;;;;;;;20.92;33.77;95009.50;4899477;29;924;-53
2023/03/31 09:49:14;;;;;;;;;;;;;;;21.34;34.72;95006.81;4900251;29;995;-53
2023/03/31 09:51:42;;;;;;;;;;;;;;;21.29;33.68;95012.97;4900126;29;1888;-52
2023/03/31 09:54:20;;;;;;;;;;;;;;;21.56;33.21;95013.44;4914483;29;1989;-53
2023/03/31 09:56:52;;;;;;;;;;;;;;;21.64;33.19;95006.81;4919161;29;971;-53
2023/03/31 09:59:20;;;;;;;;;;;;;;;21.15;33.34;94987.88;4918705;29;1034;-53
2023/03/31 10:01:48;;;;;;;;;;;;;;;20.32;34.14;94986.59;4919007;29;1061;-52
2023/03/31 10:04:22;;;;;;;;;;;;;;;19.80;34.38;94991.50;4918826;29;1369;-52
2023/03/31 10:06:48;;;;;;;;;;;;;;;19.42;34.88;94978.84;4918721;29;1282;-52
2023/03/31 10:09:15;;;;;;;;;;;;;;;19.29;34.88;94979.75;4918811;29;994;-52
2023/03/31 10:11:56;;;;;;;;;;;;;;;19.16;35.85;94953.59;4900465;29;1263;-52
2023/03/31 10:14:31;;;;;;;;;;;;;;;19.05;35.35;94946.19;4899558;29;1891;-52
2023/03/31 10:16:57;;;;;;;;;;;;;;;18.99;35.47;94957.88;4899860;29;1054;-52
2023/03/31 10:19:25;;;;;;;;;;;;;;;18.92;35.49;94953.31;4899800;29;1023;-52
2023/03/31 10:21:55;;;;;;;;;;;;;;;18.84;35.38;94948.19;4899850;29;1001;-53
2023/03/31 10:24:21;;;;;;;;;;;;;;;18.71;35.45;94940.09;4899719;29;1174;-52
2023/03/31 10:26:49;;;;;;;;;;;;;;;18.51;36.58;94940.19;4899543;29;1031;-52
2023/03/31 10:29:20;;;;;;;;;;;;;;;18.45;36.67;94941.88;4899520;29;969;-52
2023/03/31 10:31:46;;;;;;;;;;;;;;;18.46;36.71;94926.50;4899575;29;1208;-52
2023/03/31 10:34:17;;;;;;;;;;;;;;;18.43;36.09;94929.63;4899468;29;1984;-52
2023/03/31 10:36:48;;;;;;;;;;;;;;;18.33;36.92;94925.47;4901073;29;1180;-53
2023/03/31 10:39:16;;;;;;;;;;;;;;;18.31;36.81;94924.06;4937320;29;1043;-52
2023/03/31 10:41:42;;;;;;;;;;;;;;;18.23;36.89;94908.88;4937191;29;982;-53
2023/03/31 10:44:28;;;;;;;;;;;;;;;18.23;37.10;94900.78;4942183;29;1609;-52
2023/03/31 10:46:54;;;;;;;;;;;;;;;18.46;36.86;94894.81;4956190;29;931;-52
2023/03/31 10:49:20;;;;;;;;;;;;;;;18.46;37.02;94896.72;4956350;29;1036;-52
2023/03/31 10:51:55;;;;;;;;;;;;;;;18.43;37.35;94892.53;4939263;29;1074;-52
2023/03/31 10:54:21;;;;;;;;;;;;;;;18.66;36.71;94897.41;4955911;29;1983;-52
2023/03/31 10:57:05;;;;;;;;;;;;;;;18.80;36.62;94892.78;4956016;29;1213;-52
2023/03/31 10:59:31;;;;;;;;;;;;;;;18.80;36.11;94892.78;4955594;29;1031;-52
2023/03/31 11:01:57;;;;;;;;;;;;;;;18.83;36.61;94886.91;4956212;29;1023;-52
2023/03/31 11:04:42;;;;;;;;;;;;;;;18.75;37.07;94887.16;4955893;29;1031;-52
2023/03/31 11:07:28;;;;;;;;;;;;;;;18.74;36.56;94880.06;4955794;29;1105;-52
2023/03/31 11:10:06;;;;;;;;;;;;;;;19.35;37.21;94864.19;4956044;29;1063;-52
2023/03/31 11:12:43;;;;;;;;;;;;;;;20.05;35.55;94863.91;4937304;29;2654;-52
2023/03/31 11:15:09;;;;;;;;;;;;;;;20.45;34.66;94856.09;4936578;29;1911;-52
2023/03/31 11:17:40;;;;;;;;;;;;;;;20.86;34.95;94859.09;4919676;29;1383;-52
2023/03/31 11:20:38;;;;;;;;;;;;;;;21.07;34.27;94857.72;4936688;29;1037;-52
2023/03/31 11:23:25;;;;;;;;;;;;;;;20.79;34.20;94855.63;4884225;29;1257;-52
2023/03/31 11:25:57;;;;;;;;;;;;;;;20.58;35.07;94851.53;4936405;29;958;-52
2023/03/31 11:28:26;;;;;;;;;;;;;;;20.39;35.04;94850.75;4936218;29;1046;-52
2023/03/31 11:30:55;;;;;;;;;;;;;;;20.32;34.77;94841.84;4936295;29;1512;-52
2023/03/31 11:33:27;;;;;;;;;;;;;;;20.28;35.41;94841.50;4936067;29;2104;-52
2023/03/31 11:35:55;;;;;;;;;;;;;;;20.19;34.97;94835.56;4936453;29;1019;-52
2023/03/31 11:38:21;;;;;;;;;;;;;;;20.11;35.03;94824.19;4936031;29;1061;-52
2023/03/31 11:40:58;;;;;;;;;;;;;;;19.93;35.38;94823.16;4936009;29;1039;-52
2023/03/31 11:43:35;;;;;;;;;;;;;;;19.92;35.80;94809.81;4936260;29;1014;-52
2023/03/31 11:46:03;;;;;;;;;;;;;;;20.29;34.70;94805.97;4917276;29;978;-52
2023/03/31 11:48:36;;;;;;;;;;;;;;;20.72;34.33;94803.31;4931003;29;2946;-52
2023/03/31 11:51:04;;;;;;;;;;;;;;;21.00;35.46;94800.78;4936240;29;1040;-52
2023/03/31 11:53:32;;;;;;;;;;;;;;;21.08;34.11;94798.75;4935836;29;1927;-52
2023/03/31 11:56:01;;;;;;;;;;;;;;;20.97;34.84;94790.34;4935948;29;1098;-52
2023/03/31 11:58:47;;;;;;;;;;;;;;;20.90;34.41;94780.66;4935825;29;1093;-52
2023/03/31 12:01:40;;;;;;;;;;;;;;;21.13;33.85;94772.50;4935693;29;1909;-52
2023/03/31 12:04:06;;;;;;;;;;;;;;;21.13;33.82;94739.06;4931935;29;1287;-51
2023/03/31 12:06:34;;;;;;;;;;;;;;;20.90;33.71;94773.31;4936077;29;1027;-52
2023/03/31 12:09:22;;;;;;;;;;;;;;;20.58;32.97;94781.78;4935912;29;1050;-52
2023/03/31 12:11:50;;;;;;;;;;;;;;;20.60;33.60;94784.25;4940105;29;1051;-52
2023/03/31 12:14:26;;;;;;;;;;;;;;;20.91;33.85;94776.91;4939627;29;1968;-52
2023/03/31 12:16:54;;;;;;;;;;;;;;;21.01;32.95;94761.66;4939703;29;936;-52
2023/03/31 12:19:26;;;;;;;;;;;;;;;21.07;33.18;94773.47;4939649;29;1384;-52
2023/03/31 12:21:55;;;;;;;;;;;;;;;21.32;32.94;94759.63;4939763;29;1075;-52
2023/03/31 12:24:21;;;;;;;;;;;;;;;21.41;31.25;94766.34;4939549;29;1018;-52
2023/03/31 12:27:06;;;;;;;;;;;;;;;21.51;31.13;94760.34;4939756;29;1042;-52
2023/03/31 12:29:35;;;;;;;;;;;;;;;21.67;29.84;94764.22;4922749;29;965;-52
2023/03/31 12:32:21;;;;;;;;;;;;;;;21.46;30.07;94765.69;4939534;29;1033;-53
2023/03/31 12:34:53;;;;;;;;;;;;;;;21.41;30.58;94752.75;4939153;29;2006;-52
2023/03/31 12:37:31;;;;;;;;;;;;;;;21.27;30.52;94751.38;4939197;29;1211;-53
2023/03/31 12:39:57;;;;;;;;;;;;;;;20.98;30.35;94745.81;4922820;29;1177;-52
2023/03/31 12:42:36;;;;;;;;;;;;;;;20.73;31.55;94735.16;4939465;29;1038;-52
2023/03/31 12:45:02;;;;;;;;;;;;;;;20.42;31.12;94731.66;4951474;29;1545;-52
2023/03/31 12:47:32;;;;;;;;;;;;;;;20.33;31.43;94729.50;4958012;29;1115;-52
2023/03/31 12:50:05;;;;;;;;;;;;;;;20.33;31.32;94726.78;4958458;29;986;-52
2023/03/31 12:52:36;;;;;;;;;;;;;;;20.32;31.51;94722.41;4958070;29;1076;-52
2023/03/31 12:55:22;;;;;;;;;;;;;;;20.43;31.81;94705.31;4958391;29;1910;-52
2023/03/31 12:57:49;;;;;;;;;;;;;;;20.50;31.39;94714.19;4958388;29;1014;-53
2023/03/31 13:00:16;;;;;;;;;;;;;;;20.45;31.59;94709.47;4958037;29;1022;-53
2023/03/31 13:02:42;;;;;;;;;;;;;;;20.49;31.34;94712.56;4958143;29;1055;-52
2023/03/31 13:05:27;;;;;;;;;;;;;;;20.52;31.24;94703.91;4941237;29;1061;-52
2023/03/31 13:07:53;;;;;;;;;;;;;;;20.39;31.28;94699.53;4958155;29;1021;-52
2023/03/31 13:10:27;;;;;;;;;;;;;;;20.32;31.38;94704.25;4958047;29;1067;-52
2023/03/31 13:12:59;;;;;;;;;;;;;;;20.20;31.14;94706.91;4957843;29;1366;-52
2023/03/31 13:15:26;;;;;;;;;;;;;;;20.26;30.14;94695.16;4957981;29;1032;-53
2023/03/31 13:17:55;;;;;;;;;;;;;;;20.35;30.48;94690.19;4940934;29;966;-53
2023/03/31 13:20:25;;;;;;;;;;;;;;;20.35;29.79;94684.78;4957942;28;1015;-53
2023/03/31 13:22:58;;;;;;;;;;;;;;;20.30;30.24;94681.94;4957879;29;961;-52
2023/03/31 13:25:41;;;;;;;;;;;;;;;20.54;30.75;94676.53;4957581;29;1085;-52
2023/03/31 13:28:24;;;;;;;;;;;;;;;20.68;30.85;94664.44;4957640;29;1114;-52
2023/03/31 13:30:50;;;;;;;;;;;;;;;20.81;30.41;94653.31;4957520;29;1022;-52
2023/03/31 13:33:36;;;;;;;;;;;;;;;20.96;30.54;94641.13;4940379;29;1976;-52
2023/03/31 13:36:02;;;;;;;;;;;;;;;20.97;30.55;94642.78;4957428;29;1097;-52
2023/03/31 13:38:31;;;;;;;;;;;;;;;20.97;31.13;94629.22;4957195;29;1096;-52
2023/03/31 13:40:57;;;;;;;;;;;;;;;20.96;30.61;94624.81;4957599;29;1055;-52
2023/03/31 13:43:32;;;;;;;;;;;;;;;20.88;31.54;94611.63;4957162;29;1973;-51
2023/03/31 13:46:17;;;;;;;;;;;;;;;20.83;30.80;94615.88;4919130;29;1027;-52
2023/03/31 13:48:52;;;;;;;;;;;;;;;20.79;30.42;94617.41;4918971;29;1106;-52
2023/03/31 13:51:18;;;;;;;;;;;;;;;20.62;30.82;94608.31;4919036;29;976;-52
2023/03/31 13:53:44;;;;;;;;;;;;;;;20.75;31.57;94599.09;4918873;29;2001;-52
2023/03/31 13:56:22;;;;;;;;;;;;;;;20.42;31.43;94598.63;4919132;29;1029;-51
2023/03/31 13:59:04;;;;;;;;;;;;;;;20.30;30.94;94592.38;4918741;29;1222;-51
2023/03/31 14:01:48;;;;;;;;;;;;;;;20.35;30.28;94591.66;4901715;29;1037;-52
2023/03/31 14:04:20;;;;;;;;;;;;;;;20.44;30.31;94592.97;4918631;29;1094;-52
2023/03/31 14:06:50;;;;;;;;;;;;;;;20.71;30.30;94595.22;4918730;29;1105;-52
2023/03/31 14:09:16;;;;;;;;;;;;;;;20.86;29.82;94596.38;4918603;29;959;-52
2023/03/31 14:11:42;;;;;;;;;;;;;;;20.98;29.70;94595.53;4918523;29;2046;-51
2023/03/31 14:14:11;;;;;;;;;;;;;;;20.98;29.95;94593.66;4918446;29;1911;-52
2023/03/31 14:17:03;;;;;;;;;;;;;;;21.03;30.23;94598.34;4918399;29;1183;-52
2023/03/31 14:19:32;;;;;;;;;;;;;;;20.98;30.07;94595.53;4914928;29;1295;-52
2023/03/31 14:21:58;;;;;;;;;;;;;;;21.02;29.96;94596.72;4918483;29;1043;-52
2023/03/31 14:24:35;;;;;;;;;;;;;;;21.14;30.17;94588.53;4918476;29;995;-52
2023/03/31 14:27:13;;;;;;;;;;;;;;;21.28;29.69;94595.31;4918526;29;998;-52
2023/03/31 14:30:01;;;;;;;;;;;;;;;21.23;29.95;94571.59;4918627;29;1028;-52
2023/03/31 14:32:38;;;;;;;;;;;;;;;21.00;29.97;94582.50;4917798;29;1035;-52
2023/03/31 14:35:16;;;;;;;;;;;;;;;21.03;30.62;94573.91;4918374;29;1907;-52
2023/03/31 14:37:42;;;;;;;;;;;;;;;21.01;30.42;94567.88;4929252;29;1324;-51
2023/03/31 14:40:13;;;;;;;;;;;;;;;20.96;30.29;94562.31;4937396;29;1035;-52